createdAt,value
2019-04-30T00:00:38.296Z,7.33
2019-04-30T00:03:25.838Z,5.40
2019-04-30T00:05:55.589Z,5.10
2019-04-30T00:08:23.405Z,7.93
2019-04-30T00:10:51.492Z,6.03
2019-04-30T00:13:20.976Z,6.93
2019-04-30T00:15:52.686Z,5.77
2019-04-30T00:18:18.614Z,7.53
2019-04-30T00:20:47.096Z,7.17
2019-04-30T00:23:17.769Z,5.20
2019-04-30T00:25:46.016Z,4.90
2019-04-30T00:28:15.550Z,5.87
2019-04-30T00:30:43.947Z,5.73
2019-04-30T00:33:15.338Z,8.07
2019-04-30T00:35:42.657Z,4.90
2019-04-30T00:38:10.442Z,5.80
2019-04-30T00:40:38.264Z,7.37
2019-04-30T00:43:09.038Z,5.40
2019-04-30T00:45:39.933Z,6.73
2019-04-30T00:48:06.014Z,5.77
2019-04-30T00:50:37.124Z,4.77
2019-04-30T00:53:05.976Z,5.57
2019-04-30T00:55:33.389Z,5.50
2019-04-30T00:58:01.177Z,5.40
2019-04-30T01:00:30.858Z,4.97
2019-04-30T01:03:12.444Z,10.33
2019-04-30T01:05:46.414Z,4.80
2019-04-30T01:08:09.894Z,6.23
2019-04-30T01:10:37.882Z,5.00
2019-04-30T01:13:08.209Z,6.40
2019-04-30T01:15:35.433Z,4.93
2019-04-30T01:18:03.423Z,7.00
2019-04-30T01:20:32.808Z,5.93
2019-04-30T01:23:03.115Z,7.57
2019-04-30T01:25:30.668Z,6.00
2019-04-30T01:27:58.671Z,5.40
2019-04-30T01:30:28.375Z,4.50
2019-04-30T01:32:57.147Z,6.83
2019-04-30T01:35:30.923Z,4.57
2019-04-30T01:37:55.313Z,4.47
2019-04-30T01:40:23.166Z,4.63
2019-04-30T01:42:51.981Z,4.43
2019-04-30T01:45:23.237Z,6.37
2019-04-30T01:47:49.653Z,5.80
2019-04-30T01:50:19.269Z,3.83
2019-04-30T01:52:52.995Z,4.57
2019-04-30T01:55:26.374Z,6.93
2019-04-30T01:58:16.248Z,5.43
2019-04-30T02:00:52.959Z,6.70
2019-04-30T02:03:20.838Z,6.23
2019-04-30T02:05:49.831Z,8.03
2019-04-30T02:08:19.482Z,7.80
2019-04-30T02:10:49.189Z,5.67
2019-04-30T02:13:18.776Z,5.80
2019-04-30T02:15:46.790Z,5.00
2019-04-30T02:18:14.554Z,4.83
2019-04-30T02:20:42.365Z,6.50
2019-04-30T02:23:10.515Z,6.33
2019-04-30T02:25:39.619Z,6.93
2019-04-30T02:28:08.954Z,4.83
2019-04-30T02:30:36.891Z,5.60
2019-04-30T02:33:05.467Z,5.83
2019-04-30T02:35:46.398Z,6.40
2019-04-30T02:38:24.187Z,5.37
2019-04-30T02:40:52.369Z,6.83
2019-04-30T02:43:22.245Z,4.67
2019-04-30T02:45:52.236Z,6.17
2019-04-30T02:48:22.226Z,7.33
2019-04-30T02:50:52.424Z,8.47
2019-04-30T02:54:10.014Z,7.17
2019-04-30T02:56:40.001Z,5.60
2019-04-30T02:59:09.888Z,6.07
2019-04-30T03:01:40.025Z,5.90
2019-04-30T03:04:09.640Z,6.97
2019-04-30T03:06:36.530Z,7.20
2019-04-30T03:09:05.951Z,6.27
2019-04-30T03:11:33.783Z,4.70
2019-04-30T03:14:01.565Z,6.30
2019-04-30T03:16:53.229Z,5.60
2019-04-30T03:19:42.669Z,7.33
2019-04-30T03:22:20.361Z,6.03
2019-04-30T03:24:50.074Z,10.03
2019-04-30T03:27:20.476Z,6.40
2019-04-30T03:29:50.002Z,6.10
2019-04-30T03:32:21.518Z,9.73
2019-04-30T03:34:51.140Z,7.27
2019-04-30T03:37:16.370Z,7.87
2019-04-30T03:39:44.255Z,6.63
2019-04-30T03:42:12.018Z,7.77
2019-04-30T03:44:40.295Z,11.87
2019-04-30T03:47:11.024Z,6.50
2019-04-30T03:49:40.202Z,8.30
2019-04-30T03:52:12.594Z,8.93
2019-04-30T03:54:37.229Z,7.43
2019-04-30T03:57:05.017Z,7.97
2019-04-30T03:59:32.842Z,6.40
2019-04-30T04:02:12.900Z,6.67
2019-04-30T04:05:10.260Z,8.07
2019-04-30T04:07:43.657Z,5.77
2019-04-30T04:10:19.712Z,6.40
2019-04-30T04:12:49.813Z,10.27
2019-04-30T04:15:19.769Z,9.07
2019-04-30T04:17:46.780Z,8.23
2019-04-30T04:20:14.704Z,7.53
2019-04-30T04:22:42.582Z,5.87
2019-04-30T04:25:13.136Z,9.20
2019-04-30T04:27:40.098Z,6.77
2019-04-30T04:30:10.626Z,7.57
2019-04-30T04:32:40.561Z,6.90
2019-04-30T04:35:09.865Z,6.33
2019-04-30T04:37:39.523Z,5.10
2019-04-30T04:40:09.306Z,8.37
2019-04-30T04:42:39.614Z,6.73
2019-04-30T04:45:09.865Z,8.77
2019-04-30T04:47:39.902Z,10.37
2019-04-30T04:50:10.031Z,7.30
2019-04-30T04:52:39.463Z,5.53
2019-04-30T04:55:09.689Z,6.43
2019-04-30T04:57:36.684Z,7.43
2019-04-30T05:00:07.439Z,6.20
2019-04-30T05:02:49.624Z,6.30
2019-04-30T05:05:19.245Z,6.47
2019-04-30T05:07:48.488Z,7.57
2019-04-30T05:10:16.397Z,4.93
2019-04-30T05:12:44.235Z,6.00
2019-04-30T05:15:12.371Z,5.73
2019-04-30T05:17:40.144Z,5.70
2019-04-30T05:20:10.015Z,6.87
2019-04-30T05:22:38.929Z,4.73
2019-04-30T05:25:08.843Z,4.70
2019-04-30T05:27:36.807Z,6.67
2019-04-30T05:30:05.247Z,7.43
2019-04-30T05:32:33.064Z,9.27
2019-04-30T05:35:00.849Z,5.83
2019-04-30T05:37:28.745Z,8.17
2019-04-30T05:39:58.503Z,4.77
2019-04-30T05:42:26.170Z,5.17
2019-04-30T05:44:54.060Z,4.73
2019-04-30T05:47:21.844Z,9.10
2019-04-30T05:49:49.617Z,7.67
2019-04-30T05:52:19.719Z,9.20
2019-04-30T05:54:48.762Z,8.23
2019-04-30T05:57:16.757Z,8.20
2019-04-30T05:59:44.622Z,18.90
2019-04-30T06:02:12.407Z,8.70
2019-04-30T06:04:40.206Z,10.60
2019-04-30T06:07:08.620Z,8.30
2019-04-30T06:09:42.823Z,11.73
2019-04-30T06:12:33.138Z,20.20
2019-04-30T06:15:15.387Z,17.30
2019-04-30T06:17:57.945Z,14.00
2019-04-30T06:20:18.600Z,13.80
2019-04-30T06:22:46.292Z,9.77
2019-04-30T06:25:14.351Z,7.30
2019-04-30T06:27:42.239Z,7.17
2019-04-30T06:30:12.165Z,7.50
2019-04-30T06:32:39.986Z,7.83
2019-04-30T06:35:09.177Z,10.23
2019-04-30T06:37:39.083Z,7.23
2019-04-30T06:40:11.436Z,9.40
2019-04-30T06:42:39.220Z,12.07
2019-04-30T06:45:09.220Z,8.00
2019-04-30T06:47:38.938Z,7.70
2019-04-30T06:50:09.278Z,6.93
2019-04-30T06:52:38.872Z,6.87
2019-04-30T06:55:06.824Z,7.07
2019-04-30T06:57:34.755Z,10.67
2019-04-30T07:00:02.650Z,7.50
2019-04-30T07:02:30.867Z,9.73
2019-04-30T07:04:58.882Z,6.47
2019-04-30T07:07:38.466Z,5.47
2019-04-30T07:10:02.992Z,5.10
2019-04-30T07:12:53.113Z,5.63
2019-04-30T07:15:21.065Z,7.20
2019-04-30T07:17:49.260Z,4.83
2019-04-30T07:20:18.958Z,10.77
2019-04-30T07:22:53.394Z,6.30
2019-04-30T07:25:16.317Z,10.00
2019-04-30T07:27:44.236Z,7.73
2019-04-30T07:30:12.220Z,6.10
2019-04-30T07:32:40.018Z,8.73
2019-04-30T07:35:09.533Z,9.40
2019-04-30T07:37:39.153Z,7.20
2019-04-30T07:40:09.102Z,7.20
2019-04-30T07:42:42.622Z,6.27
2019-04-30T07:45:07.075Z,8.47
2019-04-30T07:47:34.893Z,6.67
2019-04-30T07:50:02.974Z,10.70
2019-04-30T07:52:34.379Z,8.63
2019-04-30T07:55:00.778Z,7.60
2019-04-30T07:57:29.197Z,5.83
2019-04-30T08:00:00.551Z,6.00
2019-04-30T08:02:30.398Z,6.03
2019-04-30T08:05:04.924Z,8.30
2019-04-30T08:07:32.771Z,6.87
2019-04-30T08:10:00.614Z,5.83
2019-04-30T08:12:33.561Z,6.63
2019-04-30T08:14:59.484Z,9.87
2019-04-30T08:17:28.942Z,8.03
2019-04-30T08:19:58.620Z,5.57
2019-04-30T08:22:26.579Z,6.90
2019-04-30T08:24:54.377Z,6.17
2019-04-30T08:27:22.252Z,6.03
2019-04-30T08:29:50.138Z,5.93
2019-04-30T08:32:19.106Z,7.13
2019-04-30T08:34:47.112Z,7.80
2019-04-30T08:37:17.614Z,7.90
2019-04-30T08:39:44.600Z,7.53
2019-04-30T08:42:12.403Z,8.73
2019-04-30T08:44:40.242Z,8.70
2019-04-30T08:47:08.616Z,5.60
2019-04-30T08:49:36.928Z,7.27
2019-04-30T08:52:04.908Z,7.10
2019-04-30T08:54:34.646Z,5.60
2019-04-30T08:57:02.379Z,7.83
2019-04-30T08:59:30.208Z,9.87
2019-04-30T09:01:58.888Z,6.90
2019-04-30T09:04:29.232Z,6.23
2019-04-30T09:06:57.071Z,7.83
2019-04-30T09:09:24.849Z,8.87
2019-04-30T09:11:55.664Z,9.37
2019-04-30T09:14:22.349Z,7.00
2019-04-30T09:16:51.375Z,6.67
2019-04-30T09:22:00.908Z,7.07
2019-04-30T09:24:30.955Z,6.97
2019-04-30T09:26:59.145Z,12.07
2019-04-30T09:29:29.068Z,6.30
2019-04-30T09:31:56.611Z,7.70
2019-04-30T09:34:24.412Z,7.33
2019-04-30T09:36:52.190Z,9.10
2019-04-30T09:39:22.846Z,8.70
2019-04-30T09:41:49.767Z,8.00
2019-04-30T09:44:19.377Z,12.20
2019-04-30T09:46:48.855Z,8.77
2019-04-30T09:49:16.780Z,8.60
2019-04-30T09:51:44.565Z,8.87
2019-04-30T09:54:13.404Z,8.27
2019-04-30T09:56:41.504Z,8.07
2019-04-30T09:59:09.320Z,11.33
2019-04-30T10:01:37.234Z,14.40
2019-04-30T10:04:05.387Z,10.30
2019-04-30T10:06:39.788Z,11.97
2019-04-30T10:09:05.847Z,9.93
2019-04-30T10:11:59.603Z,10.87
2019-04-30T10:14:27.516Z,12.30
2019-04-30T10:17:14.774Z,11.07
2019-04-30T10:19:42.559Z,10.97
2019-04-30T10:22:10.370Z,14.20
2019-04-30T10:24:39.292Z,11.57
2019-04-30T10:27:13.005Z,10.67
2019-04-30T10:29:36.930Z,10.67
2019-04-30T10:32:04.816Z,12.90
2019-04-30T10:34:32.615Z,12.20
2019-04-30T10:37:02.943Z,12.33
2019-04-30T10:39:30.570Z,10.77
2019-04-30T10:41:58.406Z,10.13
2019-04-30T10:44:26.285Z,10.77
2019-04-30T10:46:54.247Z,11.13
2019-04-30T10:49:22.074Z,11.77
2019-04-30T10:51:49.847Z,10.03
2019-04-30T10:54:26.066Z,12.93
2019-04-30T10:56:49.033Z,10.80
2019-04-30T10:59:17.000Z,10.10
2019-04-30T11:01:44.964Z,11.13
2019-04-30T11:04:15.393Z,11.17
2019-04-30T11:06:43.175Z,10.97
2019-04-30T11:09:11.118Z,14.43
2019-04-30T11:11:39.768Z,10.97
2019-04-30T11:14:07.865Z,10.10
2019-04-30T11:16:35.667Z,12.03
2019-04-30T11:19:04.476Z,11.70
2019-04-30T11:21:32.561Z,10.70
2019-04-30T11:24:00.543Z,10.20
2019-04-30T11:26:31.202Z,11.03
2019-04-30T11:28:58.271Z,11.47
2019-04-30T11:31:51.428Z,10.57
2019-04-30T11:34:19.306Z,11.00
2019-04-30T11:36:47.168Z,11.10
2019-04-30T11:39:18.613Z,10.53
2019-04-30T11:41:46.536Z,9.90
2019-04-30T11:44:27.291Z,10.87
2019-04-30T11:47:25.118Z,11.03
2019-04-30T11:49:53.087Z,9.67
2019-04-30T11:52:20.968Z,12.40
2019-04-30T11:54:53.944Z,10.00
2019-04-30T11:57:18.771Z,10.17
2019-04-30T11:59:46.575Z,9.07
2019-04-30T12:02:21.229Z,10.60
2019-04-30T12:04:49.517Z,9.47
2019-04-30T12:07:24.417Z,10.17
2019-04-30T12:10:02.303Z,9.00
2019-04-30T12:12:30.120Z,9.27
2019-04-30T12:15:00.252Z,9.20
2019-04-30T12:17:27.720Z,9.60
2019-04-30T12:19:55.542Z,10.20
2019-04-30T12:22:23.430Z,10.23
2019-04-30T12:25:02.244Z,9.10
2019-04-30T12:27:20.860Z,12.73
2019-04-30T12:29:49.538Z,8.83
2019-04-30T12:32:19.209Z,8.93
2019-04-30T12:34:47.251Z,10.40
2019-04-30T12:37:15.436Z,8.73
2019-04-30T12:39:43.218Z,9.17
2019-04-30T12:42:11.113Z,9.03
2019-04-30T12:44:40.089Z,9.47
2019-04-30T12:47:09.672Z,9.17
2019-04-30T12:49:50.299Z,11.17
2019-04-30T12:52:22.995Z,8.87
2019-04-30T12:55:14.872Z,9.40
2019-04-30T12:57:39.287Z,11.83
2019-04-30T13:00:10.009Z,8.83
2019-04-30T13:02:37.809Z,11.27
2019-04-30T13:05:06.105Z,10.33
2019-04-30T13:07:34.351Z,8.80
2019-04-30T13:10:03.128Z,9.30
2019-04-30T13:12:31.920Z,12.27
2019-04-30T13:15:00.129Z,11.67
2019-04-30T13:17:28.008Z,11.60
2019-04-30T13:19:55.785Z,9.63
2019-04-30T13:22:23.668Z,12.60
2019-04-30T13:24:52.061Z,9.50
2019-04-30T13:27:22.331Z,10.57
2019-04-30T13:30:14.539Z,10.07
2019-04-30T13:32:49.434Z,8.93
2019-04-30T13:35:19.012Z,10.87
2019-04-30T13:38:09.278Z,10.00
2019-04-30T13:41:05.468Z,12.93
2019-04-30T13:43:51.274Z,11.17
2019-04-30T13:46:19.082Z,11.57
2019-04-30T13:48:46.898Z,10.20
2019-04-30T13:51:14.771Z,12.07
2019-04-30T13:53:42.632Z,15.97
2019-04-30T13:56:10.453Z,11.70
2019-04-30T13:58:38.294Z,20.73
2019-04-30T14:01:06.412Z,16.93
2019-04-30T14:03:39.711Z,15.80
2019-04-30T14:06:09.099Z,20.77
2019-04-30T14:08:43.745Z,17.93
2019-04-30T14:11:11.973Z,18.27
2019-04-30T14:13:39.846Z,15.77
2019-04-30T14:16:07.881Z,17.37
2019-04-30T14:18:35.860Z,13.97
2019-04-30T14:21:03.791Z,14.77
2019-04-30T14:23:31.579Z,14.83
2019-04-30T14:26:01.217Z,16.10
2019-04-30T14:28:29.272Z,13.00
2019-04-30T14:30:57.465Z,18.17
2019-04-30T14:33:26.782Z,14.80
2019-04-30T14:35:55.170Z,13.00
2019-04-30T14:38:23.008Z,11.90
2019-04-30T14:40:51.723Z,12.53
2019-04-30T14:43:35.039Z,14.83
2019-04-30T14:46:32.068Z,12.80
2019-04-30T14:49:27.254Z,11.57
2019-04-30T14:51:56.326Z,13.30
2019-04-30T14:54:32.228Z,14.20
2019-04-30T14:57:04.883Z,13.70
2019-04-30T15:00:10.186Z,12.87
2019-04-30T15:02:41.958Z,13.07
2019-04-30T15:05:10.001Z,13.00
2019-04-30T15:07:39.547Z,11.43
2019-04-30T15:10:07.577Z,12.03
2019-04-30T15:12:35.717Z,11.93
2019-04-30T15:15:03.864Z,11.43
2019-04-30T15:17:31.779Z,13.00
2019-04-30T15:19:59.563Z,11.20
2019-04-30T15:22:29.066Z,11.50
2019-04-30T15:24:59.043Z,10.63
2019-04-30T15:27:26.607Z,9.97
2019-04-30T15:29:57.116Z,11.00
2019-04-30T15:32:24.025Z,12.83
2019-04-30T15:34:51.852Z,12.07
2019-04-30T15:37:23.670Z,13.37
2019-04-30T15:39:52.275Z,11.03
2019-04-30T15:42:21.045Z,8.53
2019-04-30T15:44:49.640Z,11.60
2019-04-30T15:47:18.942Z,10.23
2019-04-30T15:49:47.019Z,9.60
2019-04-30T15:52:14.899Z,9.40
2019-04-30T15:54:42.686Z,10.73
2019-04-30T15:57:10.462Z,10.50
2019-04-30T15:59:41.972Z,8.63
2019-04-30T16:02:28.748Z,8.63
2019-04-30T16:05:16.105Z,8.17
2019-04-30T16:07:51.589Z,7.47
2019-04-30T16:10:55.655Z,9.30
2019-04-30T16:13:30.521Z,9.93
2019-04-30T16:15:59.166Z,9.53
2019-04-30T16:18:32.049Z,8.67
2019-04-30T16:20:59.822Z,13.27
2019-04-30T16:23:27.734Z,8.50
2019-04-30T16:25:55.524Z,9.60
2019-04-30T16:28:23.335Z,9.60
2019-04-30T16:30:51.187Z,9.40
2019-04-30T16:33:19.854Z,10.97
2019-04-30T16:35:50.854Z,9.57
2019-04-30T16:38:18.348Z,13.23
2019-04-30T16:40:48.407Z,11.37
2019-04-30T16:43:18.663Z,10.03
2019-04-30T16:45:46.217Z,10.47
2019-04-30T16:48:14.022Z,10.00
2019-04-30T16:50:41.891Z,10.10
2019-04-30T16:53:09.758Z,14.30
2019-04-30T16:55:37.591Z,13.43
2019-04-30T16:58:05.455Z,10.87
2019-04-30T17:00:33.235Z,10.50
2019-04-30T17:03:05.370Z,10.67
2019-04-30T17:05:52.606Z,11.13
2019-04-30T17:08:29.878Z,10.80
2019-04-30T17:11:17.130Z,10.37
2019-04-30T17:13:51.364Z,10.97
2019-04-30T17:16:20.416Z,10.73
2019-04-30T17:18:49.967Z,9.40
2019-04-30T17:21:19.714Z,14.47
2019-04-30T17:23:50.671Z,13.37
2019-04-30T17:26:17.368Z,11.30
2019-04-30T17:28:45.153Z,10.10
2019-04-30T17:31:13.652Z,8.57
2019-04-30T17:33:41.980Z,9.97
2019-04-30T17:36:11.062Z,9.03
2019-04-30T17:38:39.047Z,12.53
2019-04-30T17:41:06.963Z,10.40
2019-04-30T17:43:34.865Z,10.43
2019-04-30T17:46:04.188Z,11.47
2019-04-30T17:48:32.145Z,9.37
2019-04-30T17:51:00.150Z,9.73
2019-04-30T17:53:28.821Z,8.13
2019-04-30T17:55:56.671Z,10.07
2019-04-30T17:58:24.479Z,9.20
2019-04-30T18:00:54.810Z,9.20
2019-04-30T18:03:24.085Z,9.57
2019-04-30T18:05:51.937Z,5.17
2019-04-30T18:08:20.269Z,9.43
2019-04-30T18:10:48.157Z,6.47
2019-04-30T18:13:16.028Z,5.60
2019-04-30T18:15:43.884Z,7.70
2019-04-30T18:18:29.635Z,8.40
2019-04-30T18:21:15.321Z,5.30
2019-04-30T18:24:14.461Z,8.30
2019-04-30T18:26:48.223Z,8.87
2019-04-30T18:29:16.011Z,6.23
2019-04-30T18:31:43.973Z,6.60
2019-04-30T18:34:11.915Z,6.23
2019-04-30T18:36:39.927Z,5.07
2019-04-30T18:39:08.951Z,5.30
2019-04-30T18:41:36.952Z,6.30
2019-04-30T18:44:04.757Z,7.27
2019-04-30T18:46:32.545Z,6.97
2019-04-30T18:49:00.380Z,6.60
2019-04-30T18:51:36.538Z,4.17
2019-04-30T18:53:58.016Z,9.70
2019-04-30T18:56:25.806Z,5.80
2019-04-30T18:58:53.666Z,6.60
2019-04-30T19:01:21.671Z,7.40
2019-04-30T19:03:49.517Z,7.20
2019-04-30T19:06:23.778Z,6.93
2019-04-30T19:09:11.609Z,8.50
2019-04-30T19:11:51.106Z,6.03
2019-04-30T19:14:44.201Z,5.90
2019-04-30T19:17:36.381Z,6.40
2019-04-30T19:20:20.203Z,6.23
2019-04-30T19:22:48.086Z,7.33
2019-04-30T19:25:16.041Z,9.50
2019-04-30T19:27:43.992Z,6.23
2019-04-30T19:30:12.148Z,6.70
2019-04-30T19:32:39.911Z,7.23
2019-04-30T19:35:09.106Z,5.97
2019-04-30T19:37:38.618Z,7.70
2019-04-30T19:40:08.924Z,9.80
2019-04-30T19:42:37.239Z,6.03
2019-04-30T19:45:10.188Z,7.73
2019-04-30T19:47:35.223Z,6.27
2019-04-30T19:50:03.755Z,5.23
2019-04-30T19:52:31.633Z,7.57
2019-04-30T19:54:59.398Z,5.40
2019-04-30T19:57:28.638Z,8.47
2019-04-30T19:59:58.543Z,8.30
2019-04-30T20:02:26.214Z,12.77
2019-04-30T20:07:21.251Z,9.70
2019-04-30T20:10:00.231Z,8.93
2019-04-30T20:12:19.415Z,7.03
2019-04-30T20:14:47.182Z,9.30
2019-04-30T20:17:15.026Z,11.50
2019-04-30T20:19:42.864Z,6.17
2019-04-30T20:22:10.808Z,5.10
2019-04-30T20:24:39.423Z,6.97
2019-04-30T20:27:09.950Z,9.00
2019-04-30T20:29:36.956Z,7.10
2019-04-30T20:32:04.744Z,5.77
2019-04-30T20:34:32.536Z,9.37
2019-04-30T20:37:00.466Z,10.53
2019-04-30T20:39:34.255Z,6.67
2019-04-30T20:42:02.073Z,7.13
2019-04-30T20:44:29.868Z,7.07
2019-04-30T20:46:59.091Z,5.23
2019-04-30T20:49:28.994Z,9.90
2019-04-30T20:51:58.760Z,7.60
2019-04-30T20:54:26.316Z,5.00
2019-04-30T20:56:54.124Z,5.80
2019-04-30T20:59:21.937Z,4.70
2019-04-30T21:01:49.776Z,6.00
2019-04-30T21:04:20.370Z,9.83
2019-04-30T21:06:47.178Z,6.77
2019-04-30T21:09:15.051Z,6.77
2019-04-30T21:11:45.157Z,5.53
2019-04-30T21:14:12.507Z,6.33
2019-04-30T21:16:40.303Z,7.17
2019-04-30T21:19:08.155Z,5.47
2019-04-30T21:21:35.938Z,5.67
2019-04-30T21:24:03.872Z,6.30
2019-04-30T21:26:31.750Z,4.87
2019-04-30T21:29:10.717Z,6.87
2019-04-30T21:31:47.016Z,6.77
2019-04-30T21:34:32.044Z,8.40
2019-04-30T21:36:59.902Z,9.17
2019-04-30T21:39:27.732Z,6.57
2019-04-30T21:41:55.534Z,6.87
2019-04-30T21:44:23.367Z,7.57
2019-04-30T21:46:51.171Z,7.77
2019-04-30T21:49:19.023Z,5.03
2019-04-30T21:51:46.831Z,6.83
2019-04-30T21:54:14.644Z,6.37
2019-04-30T21:56:42.485Z,4.87
2019-04-30T21:59:10.433Z,5.17
2019-04-30T22:01:38.454Z,4.63
2019-04-30T22:04:06.262Z,7.50
2019-04-30T22:06:34.119Z,5.27
2019-04-30T22:09:01.952Z,7.27
2019-04-30T22:11:29.817Z,6.50
2019-04-30T22:13:57.726Z,5.20
2019-04-30T22:16:25.491Z,5.50
2019-04-30T22:18:53.281Z,6.23
2019-04-30T22:21:21.119Z,5.07
2019-04-30T22:23:48.976Z,5.57
2019-04-30T22:26:16.891Z,5.83
2019-04-30T22:28:44.719Z,5.93
2019-04-30T22:31:12.493Z,5.17
2019-04-30T22:33:40.328Z,5.50
2019-04-30T22:36:33.221Z,6.73
2019-04-30T22:39:21.665Z,5.00
2019-04-30T22:41:49.728Z,5.40
2019-04-30T22:44:17.531Z,6.07
2019-04-30T22:46:45.354Z,5.20
2019-04-30T22:49:13.238Z,5.70
2019-04-30T22:51:41.029Z,6.50
2019-04-30T22:54:08.829Z,6.67
2019-04-30T22:56:36.772Z,5.93
2019-04-30T22:59:04.602Z,5.60
2019-04-30T23:01:51.919Z,6.20
2019-04-30T23:04:36.496Z,9.03
2019-04-30T23:07:04.464Z,6.40
2019-04-30T23:09:32.355Z,5.60
2019-04-30T23:12:00.176Z,5.30
2019-04-30T23:14:28.030Z,6.10
2019-04-30T23:16:55.824Z,9.20
2019-04-30T23:19:23.677Z,6.00
2019-04-30T23:21:51.443Z,6.23
2019-04-30T23:24:19.435Z,6.63
2019-04-30T23:26:47.359Z,5.07
2019-04-30T23:29:15.180Z,5.10
2019-04-30T23:31:42.991Z,8.40
2019-04-30T23:34:17.796Z,7.23
2019-04-30T23:36:40.453Z,6.53
2019-04-30T23:39:09.259Z,4.70
2019-04-30T23:41:37.058Z,5.20
2019-04-30T23:44:05.081Z,7.47
2019-04-30T23:46:32.890Z,6.03
2019-04-30T23:49:00.688Z,6.00
2019-04-30T23:51:28.567Z,5.93
2019-04-30T23:53:56.355Z,7.40
2019-04-30T23:56:24.143Z,5.53
2019-04-30T23:58:52.020Z,6.17
